createdAt,value
2018-05-23T00:00:29.683Z,98223.91
2018-05-23T00:02:56.079Z,98222.78
2018-05-23T00:05:23.215Z,98221.11
2018-05-23T00:07:50.713Z,98224.16
2018-05-23T00:10:17.090Z,98224.77
2018-05-23T00:12:43.468Z,98227.30
2018-05-23T00:15:09.911Z,98236.83
2018-05-23T00:17:36.381Z,98239.98
2018-05-23T00:20:02.814Z,98236.12
2018-05-23T00:22:29.185Z,98234.91
2018-05-23T00:24:56.324Z,98233.09
2018-05-23T00:27:25.071Z,98240.30
2018-05-23T00:29:51.518Z,98239.41
2018-05-23T00:32:17.949Z,98242.13
2018-05-23T00:34:44.987Z,98237.98
2018-05-23T00:37:11.463Z,98240.59
2018-05-23T00:39:39.031Z,98248.61
2018-05-23T00:42:06.211Z,98246.97
2018-05-23T00:44:32.966Z,98245.81
2018-05-23T00:46:59.333Z,98241.59
2018-05-23T00:49:26.559Z,98238.59
2018-05-23T00:51:52.977Z,98233.93
2018-05-23T00:54:19.432Z,98236.67
2018-05-23T00:56:46.229Z,98238.80
2018-05-23T00:59:12.675Z,98243.11
2018-05-23T01:01:39.103Z,98237.08
2018-05-23T01:04:05.499Z,98241.16
2018-05-23T01:06:32.730Z,98244.31
2018-05-23T01:08:59.974Z,98237.80
2018-05-23T01:11:27.113Z,98240.64
2018-05-23T01:13:53.539Z,98239.25
2018-05-23T01:16:19.909Z,98235.59
2018-05-23T01:18:46.405Z,98237.23
2018-05-23T01:21:12.934Z,98248.29
2018-05-23T01:23:39.522Z,98246.81
2018-05-23T01:26:06.782Z,98250.55
2018-05-23T01:28:34.361Z,98250.30
2018-05-23T01:31:00.809Z,98247.91
2018-05-23T01:33:28.422Z,98246.20
2018-05-23T01:35:55.767Z,98248.28
2018-05-23T01:38:22.968Z,98247.59
2018-05-23T01:40:50.077Z,98244.38
2018-05-23T01:43:17.487Z,98242.56
2018-05-23T01:45:44.305Z,98247.19
2018-05-23T01:48:10.978Z,98242.61
2018-05-23T01:50:37.920Z,98240.24
2018-05-23T01:53:05.002Z,98243.88
2018-05-23T01:55:31.442Z,98244.80
2018-05-23T01:57:58.054Z,98250.81
2018-05-23T02:00:24.440Z,98246.92
2018-05-23T02:02:50.910Z,98250.51
2018-05-23T02:05:17.468Z,98257.24
2018-05-23T02:07:44.969Z,98255.19
2018-05-23T02:10:11.504Z,98259.08
2018-05-23T02:12:38.131Z,98260.83
2018-05-23T02:15:04.569Z,98263.42
2018-05-23T02:17:31.707Z,98265.98
2018-05-23T02:19:59.338Z,98266.67
2018-05-23T02:22:26.514Z,98266.13
2018-05-23T02:24:53.814Z,98267.39
2018-05-23T02:27:20.324Z,98270.09
2018-05-23T02:29:46.854Z,98260.84
2018-05-23T02:32:13.592Z,98262.41
2018-05-23T02:34:40.517Z,98265.68
2018-05-23T02:37:07.667Z,98272.84
2018-05-23T02:39:34.610Z,98264.55
2018-05-23T02:42:01.150Z,98261.08
2018-05-23T02:44:27.694Z,98260.49
2018-05-23T02:46:54.203Z,98258.26
2018-05-23T02:49:21.430Z,98258.44
2018-05-23T02:51:47.984Z,98262.63
2018-05-23T02:54:15.649Z,98259.09
2018-05-23T02:56:42.153Z,98261.98
2018-05-23T02:59:08.573Z,98267.13
2018-05-23T03:01:35.944Z,98265.66
2018-05-23T03:04:03.273Z,98268.25
2018-05-23T03:06:30.192Z,98270.67
2018-05-23T03:08:57.343Z,98260.64
2018-05-23T03:11:24.776Z,98256.10
2018-05-23T03:13:51.587Z,98259.11
2018-05-23T03:16:18.092Z,98258.28
2018-05-23T03:18:44.588Z,98252.50
2018-05-23T03:21:11.038Z,98255.56
2018-05-23T03:23:38.990Z,98251.31
2018-05-23T03:26:05.458Z,98241.81
2018-05-23T03:28:32.621Z,98243.06
2018-05-23T03:30:59.189Z,98243.66
2018-05-23T03:33:25.642Z,98242.24
2018-05-23T03:35:52.883Z,98239.83
2018-05-23T03:38:19.317Z,98236.10
2018-05-23T03:40:45.805Z,98237.89
2018-05-23T03:43:12.246Z,98242.44
2018-05-23T03:45:38.722Z,98235.95
2018-05-23T03:48:05.425Z,98244.56
2018-05-23T03:50:31.857Z,98241.83
2018-05-23T03:52:58.579Z,98246.39
2018-05-23T03:55:25.131Z,98246.39
2018-05-23T03:57:51.513Z,98255.37
2018-05-23T04:00:36.194Z,98254.19
2018-05-23T04:03:21.814Z,98263.64
2018-05-23T04:06:06.868Z,98267.00
2018-05-23T04:08:35.119Z,98267.11
2018-05-23T04:11:02.418Z,98275.45
2018-05-23T04:13:28.828Z,98283.84
2018-05-23T04:15:55.456Z,98291.80
2018-05-23T04:18:22.737Z,98292.34
2018-05-23T04:20:49.142Z,98289.61
2018-05-23T04:23:15.568Z,98295.28
2018-05-23T04:25:42.735Z,98295.37
2018-05-23T04:28:09.224Z,98303.16
2018-05-23T04:30:35.654Z,98303.22
2018-05-23T04:33:02.074Z,98313.84
2018-05-23T04:35:28.768Z,98314.89
2018-05-23T04:37:55.309Z,98321.93
2018-05-23T04:40:21.774Z,98322.50
2018-05-23T04:42:48.185Z,98330.42
2018-05-23T04:45:14.605Z,98333.73
2018-05-23T04:47:41.136Z,98336.50
2018-05-23T04:50:07.610Z,98332.83
2018-05-23T04:52:34.210Z,98344.95
2018-05-23T04:55:00.761Z,98343.25
2018-05-23T04:57:27.208Z,98351.56
2018-05-23T04:59:53.645Z,98360.83
2018-05-23T05:02:20.100Z,98359.53
2018-05-23T05:04:46.546Z,98356.09
2018-05-23T05:07:14.453Z,98365.09
2018-05-23T05:09:41.043Z,98362.19
2018-05-23T05:12:07.655Z,98364.14
2018-05-23T05:14:34.325Z,98366.52
2018-05-23T05:17:01.505Z,98376.19
2018-05-23T05:19:28.165Z,98378.20
2018-05-23T05:21:54.615Z,98374.19
2018-05-23T05:24:21.053Z,98378.78
2018-05-23T05:26:47.621Z,98383.45
2018-05-23T05:29:16.373Z,98383.42
2018-05-23T05:31:42.924Z,98385.50
2018-05-23T05:34:09.385Z,98392.59
2018-05-23T05:36:37.041Z,98392.77
2018-05-23T05:39:03.620Z,98394.75
2018-05-23T05:41:30.094Z,98396.08
2018-05-23T05:43:56.566Z,98403.95
2018-05-23T05:46:23.754Z,98407.12
2018-05-23T05:48:50.876Z,98415.29
2018-05-23T05:51:17.285Z,98415.57
2018-05-23T05:53:43.971Z,98423.66
2018-05-23T05:56:10.684Z,98415.23
2018-05-23T05:58:37.204Z,98421.70
2018-05-23T06:01:05.081Z,98427.33
2018-05-23T06:03:31.507Z,98431.74
2018-05-23T06:05:58.682Z,98438.04
2018-05-23T06:08:25.319Z,98443.56
2018-05-23T06:10:52.424Z,98453.05
2018-05-23T06:13:19.681Z,98453.46
2018-05-23T06:15:47.193Z,98454.48
2018-05-23T06:18:13.752Z,98458.78
2018-05-23T06:20:42.111Z,98462.65
2018-05-23T06:23:08.543Z,98464.92
2018-05-23T06:25:37.573Z,98463.14
2018-05-23T06:28:05.022Z,98465.00
2018-05-23T06:30:31.601Z,98472.70
2018-05-23T06:32:59.947Z,98470.63
2018-05-23T06:35:26.619Z,98473.52
2018-05-23T06:37:53.397Z,98479.69
2018-05-23T06:40:19.865Z,98476.05
2018-05-23T06:42:47.556Z,98475.30
2018-05-23T06:45:14.653Z,98480.35
2018-05-23T06:47:42.664Z,98475.88
2018-05-23T06:50:09.920Z,98465.97
2018-05-23T06:52:37.305Z,98467.45
2018-05-23T06:55:03.755Z,98471.16
2018-05-23T06:57:30.248Z,98474.61
2018-05-23T06:59:56.736Z,98472.11
2018-05-23T07:02:23.160Z,98481.72
2018-05-23T07:04:49.738Z,98483.07
2018-05-23T07:07:16.890Z,98488.19
2018-05-23T07:09:44.129Z,98493.33
2018-05-23T07:12:11.442Z,98495.86
2018-05-23T07:14:37.890Z,98498.68
2018-05-23T07:17:05.072Z,98505.25
2018-05-23T07:19:32.411Z,98510.19
2018-05-23T07:21:59.623Z,98510.13
2018-05-23T07:24:26.915Z,98514.39
2018-05-23T07:26:53.622Z,98510.57
2018-05-23T07:29:20.052Z,98508.22
2018-05-23T07:31:46.587Z,98513.11
2018-05-23T07:34:12.924Z,98505.67
2018-05-23T07:36:39.345Z,98512.95
2018-05-23T07:39:05.875Z,98508.95
2018-05-23T07:41:32.375Z,98515.92
2018-05-23T07:43:59.600Z,98508.45
2018-05-23T07:46:27.852Z,98515.73
2018-05-23T07:48:54.338Z,98507.61
2018-05-23T07:51:21.828Z,98509.22
2018-05-23T07:53:52.289Z,98511.43
2018-05-23T07:56:18.733Z,98512.94
2018-05-23T07:58:46.109Z,98518.96
2018-05-23T08:01:14.150Z,98521.63
2018-05-23T08:03:40.615Z,98523.72
2018-05-23T08:06:09.448Z,98525.62
2018-05-23T08:08:36.696Z,98526.05
2018-05-23T08:11:03.184Z,98528.38
2018-05-23T08:13:29.725Z,98533.24
2018-05-23T08:15:56.314Z,98537.50
2018-05-23T08:18:23.006Z,98535.41
2018-05-23T08:20:50.212Z,98537.79
2018-05-23T08:23:16.645Z,98540.63
2018-05-23T08:25:43.191Z,98543.64
2018-05-23T08:28:11.189Z,98540.30
2018-05-23T08:30:40.230Z,98542.95
2018-05-23T08:33:07.196Z,98540.97
2018-05-23T08:35:34.616Z,98543.33
2018-05-23T08:38:01.120Z,98538.10
2018-05-23T08:40:28.310Z,98541.57
2018-05-23T08:42:56.054Z,98538.42
2018-05-23T08:45:22.753Z,98536.48
2018-05-23T08:47:49.167Z,98537.73
2018-05-23T08:50:15.623Z,98541.47
2018-05-23T08:52:42.800Z,98539.98
2018-05-23T08:55:09.371Z,98544.29
2018-05-23T08:57:36.722Z,98551.20
2018-05-23T09:00:03.419Z,98544.52
2018-05-23T09:02:30.408Z,98552.13
2018-05-23T09:04:57.015Z,98554.89
2018-05-23T09:07:23.506Z,98554.47
2018-05-23T09:09:50.042Z,98552.11
2018-05-23T09:12:16.615Z,98551.09
2018-05-23T09:14:43.003Z,98557.01
2018-05-23T09:17:09.390Z,98555.47
2018-05-23T09:19:35.926Z,98563.35
2018-05-23T09:22:02.392Z,98556.81
2018-05-23T09:24:28.812Z,98561.03
2018-05-23T09:26:55.368Z,98563.53
2018-05-23T09:29:22.229Z,98569.20
2018-05-23T09:31:48.694Z,98568.22
2018-05-23T09:34:15.418Z,98570.73
2018-05-23T09:36:42.032Z,98574.08
2018-05-23T09:39:08.521Z,98577.16
2018-05-23T09:41:35.053Z,98576.50
2018-05-23T09:44:01.589Z,98568.36
2018-05-23T09:46:28.737Z,98575.95
2018-05-23T09:48:55.548Z,98575.58
2018-05-23T09:51:23.061Z,98577.00
2018-05-23T09:53:49.658Z,98580.86
2018-05-23T09:56:16.162Z,98575.20
2018-05-23T09:58:42.602Z,98575.65
2018-05-23T10:01:10.439Z,98577.56
2018-05-23T10:03:37.626Z,98574.05
2018-05-23T10:06:04.090Z,98574.41
2018-05-23T10:08:30.506Z,98576.30
2018-05-23T10:10:57.684Z,98579.41
2018-05-23T10:13:24.845Z,98572.66
2018-05-23T10:15:51.353Z,98572.54
2018-05-23T10:18:17.997Z,98575.20
2018-05-23T10:20:44.424Z,98567.11
2018-05-23T10:23:10.930Z,98570.38
2018-05-23T10:25:38.345Z,98574.87
2018-05-23T10:28:04.938Z,98566.75
2018-05-23T10:30:32.091Z,98571.70
2018-05-23T10:32:59.268Z,98577.16
2018-05-23T10:35:25.721Z,98566.13
2018-05-23T10:37:52.194Z,98554.63
2018-05-23T10:40:19.751Z,98561.27
2018-05-23T10:42:46.634Z,98565.26
2018-05-23T10:45:13.077Z,98564.31
2018-05-23T10:47:39.449Z,98559.73
2018-05-23T10:50:05.982Z,98561.34
2018-05-23T10:52:32.818Z,98560.02
2018-05-23T10:54:59.439Z,98562.23
2018-05-23T10:57:25.868Z,98568.08
2018-05-23T10:59:52.261Z,98562.61
2018-05-23T11:02:19.455Z,98562.13
2018-05-23T11:04:45.943Z,98560.16
2018-05-23T11:07:13.227Z,98559.66
2018-05-23T11:09:40.189Z,98555.27
2018-05-23T11:12:06.615Z,98558.27
2018-05-23T11:14:33.334Z,98555.84
2018-05-23T11:16:59.741Z,98556.67
2018-05-23T11:19:29.318Z,98554.97
2018-05-23T11:21:55.831Z,98551.36
2018-05-23T11:24:22.321Z,98550.84
2018-05-23T11:26:49.829Z,98545.95
2018-05-23T11:29:16.251Z,98544.41
2018-05-23T11:31:42.817Z,98543.57
2018-05-23T11:34:11.124Z,98536.78
2018-05-23T11:36:37.623Z,98538.13
2018-05-23T11:39:04.251Z,98535.84
2018-05-23T11:41:30.904Z,98530.02
2018-05-23T11:43:57.553Z,98527.35
2018-05-23T11:46:24.223Z,98527.16
2018-05-23T11:48:51.396Z,98518.17
2018-05-23T11:51:17.840Z,98520.99
2018-05-23T11:53:44.356Z,98515.86
2018-05-23T11:58:45.055Z,98503.98
2018-05-23T12:01:11.582Z,98503.13
2018-05-23T12:03:38.087Z,98502.86
2018-05-23T12:06:04.562Z,98498.52
2018-05-23T12:08:31.882Z,98482.10
2018-05-23T12:10:58.340Z,98482.41
2018-05-23T12:13:24.747Z,98477.69
2018-05-23T12:15:51.155Z,98486.67
2018-05-23T12:18:17.644Z,98483.75
2018-05-23T12:20:45.891Z,98488.14
2018-05-23T12:23:12.401Z,98475.05
2018-05-23T12:25:39.831Z,98478.51
2018-05-23T12:28:07.675Z,98468.84
2018-05-23T12:30:34.737Z,98460.84
2018-05-23T12:33:01.477Z,98457.06
2018-05-23T12:35:29.913Z,98466.70
2018-05-23T12:37:56.999Z,98463.56
2018-05-23T12:40:23.472Z,98458.93
2018-05-23T12:42:50.202Z,98462.75
2018-05-23T12:45:16.642Z,98463.58
2018-05-23T12:47:43.037Z,98465.11
2018-05-23T12:50:09.427Z,98467.76
2018-05-23T12:52:35.892Z,98463.63
2018-05-23T12:55:02.504Z,98468.92
2018-05-23T12:57:28.963Z,98465.31
2018-05-23T12:59:55.425Z,98463.23
2018-05-23T13:02:22.546Z,98465.25
2018-05-23T13:04:49.059Z,98461.92
2018-05-23T13:07:15.525Z,98465.05
2018-05-23T13:09:41.942Z,98463.89
2018-05-23T13:12:08.317Z,98465.14
2018-05-23T13:14:35.047Z,98454.81
2018-05-23T13:17:02.185Z,98447.57
2018-05-23T13:19:29.357Z,98449.23
2018-05-23T13:21:55.913Z,98450.34
2018-05-23T13:24:22.376Z,98450.62
2018-05-23T13:26:48.754Z,98447.17
2018-05-23T13:29:16.336Z,98445.72
2018-05-23T13:31:43.054Z,98448.81
2018-05-23T13:34:10.452Z,98439.89
2018-05-23T13:36:36.840Z,98440.61
2018-05-23T13:39:05.217Z,98443.25
2018-05-23T13:41:32.381Z,98443.39
2018-05-23T13:43:59.206Z,98434.58
2018-05-23T13:46:26.178Z,98433.77
2018-05-23T13:48:53.137Z,98432.61
2018-05-23T13:51:19.698Z,98425.92
2018-05-23T13:53:46.129Z,98420.12
2018-05-23T13:56:12.724Z,98427.41
2018-05-23T13:58:39.625Z,98428.82
2018-05-23T14:01:08.263Z,98415.67
2018-05-23T14:03:35.809Z,98417.20
2018-05-23T14:06:03.325Z,98418.93
2018-05-23T14:08:30.734Z,98417.28
2018-05-23T14:10:58.454Z,98405.95
2018-05-23T14:13:25.973Z,98406.30
2018-05-23T14:15:52.507Z,98408.92
2018-05-23T14:18:20.035Z,98406.85
2018-05-23T14:20:46.528Z,98404.62
2018-05-23T14:23:13.819Z,98402.50
2018-05-23T14:25:43.356Z,98404.41
2018-05-23T14:28:13.545Z,98398.20
2018-05-23T14:30:40.990Z,98400.06
2018-05-23T14:33:08.504Z,98401.87
2018-05-23T14:35:35.037Z,98410.05
2018-05-23T14:38:01.575Z,98401.88
2018-05-23T14:40:28.090Z,98407.45
2018-05-23T14:42:54.495Z,98415.22
2018-05-23T14:45:21.734Z,98404.89
2018-05-23T14:47:49.921Z,98400.56
2018-05-23T14:50:17.118Z,98405.03
2018-05-23T14:52:43.528Z,98397.52
2018-05-23T14:55:10.177Z,98392.88
2018-05-23T14:57:36.885Z,98393.17
2018-05-23T15:00:04.066Z,98392.14
2018-05-23T15:02:30.601Z,98390.06
2018-05-23T15:04:56.938Z,98384.73
2018-05-23T15:07:23.586Z,98391.12
2018-05-23T15:09:51.173Z,98382.59
2018-05-23T15:12:17.778Z,98386.00
2018-05-23T15:14:44.356Z,98383.91
2018-05-23T15:17:11.866Z,98392.66
2018-05-23T15:19:39.189Z,98393.86
2018-05-23T15:22:05.624Z,98389.27
2018-05-23T15:24:32.080Z,98391.98
2018-05-23T15:26:58.550Z,98388.59
2018-05-23T15:29:24.951Z,98387.88
2018-05-23T15:31:51.427Z,98376.75
2018-05-23T15:34:17.794Z,98383.30
2018-05-23T15:36:44.267Z,98379.07
2018-05-23T15:39:10.693Z,98374.97
2018-05-23T15:41:37.706Z,98385.53
2018-05-23T15:44:04.061Z,98380.65
2018-05-23T15:46:30.616Z,98377.77
2018-05-23T15:48:57.442Z,98377.91
2018-05-23T15:51:24.096Z,98380.05
2018-05-23T15:53:50.592Z,98377.19
2018-05-23T15:56:17.040Z,98376.00
2018-05-23T15:58:43.453Z,98372.94
2018-05-23T16:01:09.957Z,98377.80
2018-05-23T16:03:37.080Z,98382.95
2018-05-23T16:06:03.558Z,98377.20
2018-05-23T16:08:29.989Z,98369.00
2018-05-23T16:10:57.209Z,98374.30
2018-05-23T16:13:23.605Z,98363.33
2018-05-23T16:15:50.042Z,98368.58
2018-05-23T16:18:16.497Z,98377.51
2018-05-23T16:20:43.388Z,98380.97
2018-05-23T16:23:09.851Z,98387.84
2018-05-23T16:25:36.663Z,98375.31
2018-05-23T16:28:03.131Z,98379.25
2018-05-23T16:30:29.580Z,98377.87
2018-05-23T16:32:59.751Z,98375.76
2018-05-23T16:35:26.173Z,98378.22
2018-05-23T16:37:53.342Z,98377.15
2018-05-23T16:40:19.734Z,98379.42
2018-05-23T16:42:46.255Z,98381.94
2018-05-23T16:45:12.950Z,98379.72
2018-05-23T16:47:39.431Z,98383.60
2018-05-23T16:50:06.692Z,98375.56
2018-05-23T16:52:33.099Z,98376.49
2018-05-23T16:54:59.549Z,98377.99
2018-05-23T16:57:26.139Z,98380.88
2018-05-23T16:59:52.628Z,98381.56
2018-05-23T17:02:19.818Z,98375.36
2018-05-23T17:04:46.193Z,98376.08
2018-05-23T17:07:12.638Z,98376.64
2018-05-23T17:09:39.111Z,98383.86
2018-05-23T17:12:05.508Z,98385.73
2018-05-23T17:14:32.032Z,98382.79
2018-05-23T17:16:59.807Z,98383.30
2018-05-23T17:19:27.448Z,98387.30
2018-05-23T17:21:55.109Z,98376.47
2018-05-23T17:24:21.505Z,98376.20
2018-05-23T17:26:47.873Z,98381.69
2018-05-23T17:29:14.392Z,98381.47
2018-05-23T17:31:40.797Z,98387.92
2018-05-23T17:34:07.183Z,98392.00
2018-05-23T17:36:33.638Z,98385.52
2018-05-23T17:39:00.134Z,98382.30
2018-05-23T17:41:26.520Z,98377.86
2018-05-23T17:43:53.669Z,98380.03
2018-05-23T17:46:20.820Z,98381.48
2018-05-23T17:48:47.269Z,98389.42
2018-05-23T17:51:13.696Z,98381.89
2018-05-23T17:53:42.852Z,98387.56
2018-05-23T17:56:09.349Z,98380.67
2018-05-23T17:58:36.093Z,98381.95
2018-05-23T18:01:03.875Z,98374.09
2018-05-23T18:03:30.317Z,98376.83
2018-05-23T18:05:57.152Z,98383.20
2018-05-23T18:08:23.660Z,98386.41
2018-05-23T18:10:50.077Z,98391.15
2018-05-23T18:13:16.433Z,98391.19
2018-05-23T18:15:43.053Z,98392.78
2018-05-23T18:18:09.527Z,98395.66
2018-05-23T18:20:36.327Z,98397.25
2018-05-23T18:23:02.985Z,98407.47
2018-05-23T18:25:29.688Z,98407.58
2018-05-23T18:27:57.427Z,98421.70
2018-05-23T18:30:24.650Z,98428.28
2018-05-23T18:32:51.448Z,98427.82
2018-05-23T18:35:17.873Z,98430.12
2018-05-23T18:37:45.405Z,98440.13
2018-05-23T18:40:11.892Z,98445.75
2018-05-23T18:42:38.398Z,98457.22
2018-05-23T18:45:06.199Z,98452.08
2018-05-23T18:47:33.426Z,98452.63
2018-05-23T18:50:00.724Z,98446.71
2018-05-23T18:52:27.554Z,98451.80
2018-05-23T18:54:55.296Z,98446.91
2018-05-23T18:57:22.469Z,98455.10
2018-05-23T18:59:49.171Z,98454.25
2018-05-23T19:02:15.713Z,98453.27
2018-05-23T19:04:42.163Z,98463.38
2018-05-23T19:07:08.725Z,98467.25
2018-05-23T19:09:35.422Z,98460.70
2018-05-23T19:12:01.859Z,98465.47
2018-05-23T19:14:28.569Z,98468.39
2018-05-23T19:16:55.034Z,98468.52
2018-05-23T19:19:21.529Z,98472.34
2018-05-23T19:21:48.875Z,98481.38
2018-05-23T19:24:15.315Z,98486.11
2018-05-23T19:26:41.781Z,98488.06
2018-05-23T19:29:08.325Z,98485.48
2018-05-23T19:31:35.232Z,98493.55
2018-05-23T19:34:02.394Z,98495.62
2018-05-23T19:36:29.593Z,98497.85
2018-05-23T19:38:56.030Z,98489.58
2018-05-23T19:41:23.603Z,98491.47
2018-05-23T19:43:50.245Z,98499.10
2018-05-23T19:46:16.859Z,98493.64
2018-05-23T19:48:43.300Z,98490.50
2018-05-23T19:51:10.118Z,98489.23
2018-05-23T19:53:36.757Z,98491.46
2018-05-23T19:56:03.143Z,98493.93
2018-05-23T19:58:29.607Z,98499.11
2018-05-23T20:00:56.048Z,98499.69
2018-05-23T20:03:22.465Z,98498.87
2018-05-23T20:05:49.898Z,98497.34
2018-05-23T20:08:17.584Z,98493.77
2018-05-23T20:10:44.574Z,98501.23
2018-05-23T20:13:11.238Z,98506.61
2018-05-23T20:15:38.600Z,98506.53
2018-05-23T20:18:05.710Z,98501.05
2018-05-23T20:20:32.519Z,98499.36
2018-05-23T20:22:58.989Z,98491.92
2018-05-23T20:25:25.432Z,98484.59
2018-05-23T20:27:51.893Z,98487.84
2018-05-23T20:30:18.943Z,98479.67
2018-05-23T20:32:50.304Z,98480.75
2018-05-23T20:35:17.674Z,98485.48
2018-05-23T20:37:46.194Z,98488.98
2018-05-23T20:40:15.002Z,98486.70
2018-05-23T20:42:44.515Z,98483.78
2018-05-23T20:45:12.406Z,98489.05
2018-05-23T20:47:39.599Z,98487.09
2018-05-23T20:50:06.061Z,98485.13
2018-05-23T20:52:32.590Z,98482.19
2018-05-23T20:54:59.213Z,98482.11
2018-05-23T20:57:26.588Z,98474.44
2018-05-23T20:59:53.170Z,98472.16
2018-05-23T21:02:19.755Z,98480.98
2018-05-23T21:04:46.431Z,98476.95
2018-05-23T21:07:13.279Z,98480.05
2018-05-23T21:09:39.858Z,98482.84
2018-05-23T21:12:06.448Z,98488.23
2018-05-23T21:14:32.970Z,98489.93
2018-05-23T21:17:00.391Z,98494.50
2018-05-23T21:19:28.094Z,98491.55
2018-05-23T21:21:54.597Z,98502.34
2018-05-23T21:24:21.871Z,98499.13
2018-05-23T21:26:49.353Z,98507.37
2018-05-23T21:29:15.933Z,98511.92
2018-05-23T21:31:42.677Z,98509.95
2018-05-23T21:34:11.250Z,98507.02
2018-05-23T21:36:40.416Z,98509.38
2018-05-23T21:39:08.657Z,98511.24
2018-05-23T21:41:38.083Z,98503.09
2018-05-23T21:44:06.104Z,98504.97
2018-05-23T21:46:33.722Z,98508.97
2018-05-23T21:49:01.222Z,98505.80
2018-05-23T21:51:27.740Z,98505.28
2018-05-23T21:53:54.805Z,98503.59
2018-05-23T21:56:21.379Z,98505.29
2018-05-23T21:58:47.870Z,98501.86
2018-05-23T22:01:14.465Z,98504.44
2018-05-23T22:03:41.033Z,98502.00
2018-05-23T22:06:08.487Z,98498.21
2018-05-23T22:08:34.977Z,98494.30
2018-05-23T22:11:02.316Z,98495.41
2018-05-23T22:13:29.543Z,98495.83
2018-05-23T22:15:56.002Z,98491.22
2018-05-23T22:18:23.494Z,98494.11
2018-05-23T22:20:49.991Z,98498.63
2018-05-23T22:23:17.419Z,98502.89
2018-05-23T22:25:43.895Z,98498.37
2018-05-23T22:28:11.163Z,98488.91
2018-05-23T22:30:44.081Z,98487.02
2018-05-23T22:33:11.945Z,98486.72
2018-05-23T22:35:38.337Z,98480.81
2018-05-23T22:38:05.551Z,98491.03
2018-05-23T22:40:32.460Z,98490.91
2018-05-23T22:43:00.001Z,98493.09
2018-05-23T22:45:27.186Z,98487.23
2018-05-23T22:50:27.231Z,98492.06
2018-05-23T22:52:53.722Z,98494.33
2018-05-23T22:55:20.536Z,98487.41
2018-05-23T22:57:46.944Z,98494.40
2018-05-23T23:00:21.028Z,98487.06
2018-05-23T23:02:47.627Z,98484.17
2018-05-23T23:05:14.858Z,98484.69
2018-05-23T23:07:41.324Z,98483.41
2018-05-23T23:10:07.723Z,98480.16
2018-05-23T23:12:34.280Z,98483.61
2018-05-23T23:15:01.456Z,98487.69
2018-05-23T23:17:27.893Z,98488.14
2018-05-23T23:19:54.441Z,98491.11
2018-05-23T23:22:39.069Z,98489.58
2018-05-23T23:25:05.580Z,98489.03
2018-05-23T23:27:32.018Z,98492.72
2018-05-23T23:29:59.233Z,98497.05
2018-05-23T23:32:25.605Z,98503.01
2018-05-23T23:34:52.761Z,98499.47
2018-05-23T23:37:20.019Z,98500.13
2018-05-23T23:39:47.343Z,98505.13
2018-05-23T23:42:14.013Z,98501.39
2018-05-23T23:44:41.155Z,98500.45
2018-05-23T23:47:07.575Z,98507.61
2018-05-23T23:49:33.974Z,98507.28
2018-05-23T23:52:00.404Z,98511.16
2018-05-23T23:54:27.113Z,98515.80
2018-05-23T23:56:53.620Z,98522.70
2018-05-23T23:59:20.744Z,98514.64
